createdAt,value
2018-04-22T00:01:54.979Z,24.53
2018-04-22T00:04:23.919Z,25.40
2018-04-22T00:06:53.048Z,25.60
2018-04-22T00:09:22.940Z,23.73
2018-04-22T00:11:52.234Z,32.40
2018-04-22T00:14:21.321Z,30.00
2018-04-22T00:16:50.583Z,25.90
2018-04-22T00:19:20.562Z,29.00
2018-04-22T00:21:49.838Z,20.23
2018-04-22T00:24:18.847Z,26.87
2018-04-22T00:26:48.151Z,25.23
2018-04-22T00:29:17.171Z,23.37
2018-04-22T00:31:47.026Z,36.10
2018-04-22T00:34:16.264Z,27.50
2018-04-22T00:36:45.464Z,31.40
2018-04-22T00:39:14.539Z,29.10
2018-04-22T00:41:43.755Z,29.73
2018-04-22T00:44:12.779Z,26.10
2018-04-22T00:46:42.892Z,29.07
2018-04-22T00:49:12.160Z,21.47
2018-04-22T00:51:41.307Z,28.23
2018-04-22T00:54:23.085Z,31.27
2018-04-22T00:56:52.193Z,20.87
2018-04-22T00:59:22.077Z,33.57
2018-04-22T01:01:51.264Z,34.30
2018-04-22T01:04:20.378Z,28.67
2018-04-22T01:06:49.621Z,35.83
2018-04-22T01:09:18.511Z,25.53
2018-04-22T01:11:47.759Z,35.90
2018-04-22T01:14:16.999Z,30.63
2018-04-22T01:16:46.724Z,34.10
2018-04-22T01:19:15.860Z,30.07
2018-04-22T01:21:45.123Z,24.97
2018-04-22T01:24:15.000Z,28.30
2018-04-22T01:26:44.284Z,25.53
2018-04-22T01:29:13.219Z,31.10
2018-04-22T01:31:42.372Z,27.60
2018-04-22T01:34:11.486Z,30.43
2018-04-22T01:36:40.675Z,26.97
2018-04-22T01:39:09.675Z,27.90
2018-04-22T01:41:38.876Z,35.07
2018-04-22T01:44:07.928Z,50.37
2018-04-22T01:46:37.200Z,36.43
2018-04-22T01:49:06.614Z,30.97
2018-04-22T01:51:36.100Z,38.83
2018-04-22T01:54:06.219Z,33.83
2018-04-22T01:56:35.921Z,50.37
2018-04-22T01:59:04.945Z,36.03
2018-04-22T02:01:35.256Z,31.53
2018-04-22T02:04:04.945Z,36.43
2018-04-22T02:06:34.389Z,33.13
2018-04-22T02:09:03.953Z,26.93
2018-04-22T02:11:33.294Z,49.83
2018-04-22T02:14:03.200Z,42.90
2018-04-22T02:16:33.068Z,41.73
2018-04-22T02:19:02.120Z,37.60
2018-04-22T02:21:32.203Z,34.50
2018-04-22T02:24:01.300Z,31.83
2018-04-22T02:26:30.598Z,32.50
2018-04-22T02:28:59.592Z,56.40
2018-04-22T02:31:28.803Z,40.67
2018-04-22T02:33:57.803Z,26.60
2018-04-22T02:36:27.029Z,30.47
2018-04-22T02:38:56.931Z,37.27
2018-04-22T02:41:26.215Z,36.87
2018-04-22T02:43:55.255Z,35.00
2018-04-22T02:46:24.542Z,32.33
2018-04-22T02:48:54.291Z,29.80
2018-04-22T02:51:23.835Z,29.20
2018-04-22T02:53:52.913Z,32.90
2018-04-22T02:56:22.275Z,24.47
2018-04-22T02:58:52.164Z,36.10
2018-04-22T03:01:21.453Z,27.30
2018-04-22T03:03:51.171Z,32.20
2018-04-22T03:06:20.973Z,34.53
2018-04-22T03:08:50.074Z,25.63
2018-04-22T03:11:19.383Z,39.10
2018-04-22T03:13:49.296Z,29.50
2018-04-22T03:16:19.272Z,24.53
2018-04-22T03:18:48.292Z,27.93
2018-04-22T03:21:17.387Z,48.03
2018-04-22T03:23:46.388Z,27.13
2018-04-22T03:26:15.492Z,31.47
2018-04-22T03:28:44.472Z,18.10
2018-04-22T03:31:13.548Z,26.97
2018-04-22T03:33:42.572Z,39.00
2018-04-22T03:36:11.672Z,35.20
2018-04-22T03:38:41.484Z,41.37
2018-04-22T03:41:10.784Z,28.77
2018-04-22T03:43:39.826Z,36.70
2018-04-22T03:46:10.019Z,43.53
2018-04-22T03:48:39.188Z,35.50
2018-04-22T03:51:08.299Z,50.60
2018-04-22T03:53:37.383Z,65.93
2018-04-22T03:56:06.647Z,66.17
2018-04-22T03:58:35.688Z,54.37
2018-04-22T04:01:04.800Z,40.97
2018-04-22T04:03:35.312Z,36.20
2018-04-22T04:06:04.426Z,40.80
2018-04-22T04:08:34.355Z,35.93
2018-04-22T04:11:04.471Z,35.93
2018-04-22T04:13:33.716Z,34.23
2018-04-22T04:16:02.955Z,45.93
2018-04-22T04:18:56.454Z,42.83
2018-04-22T04:21:37.576Z,38.47
2018-04-22T04:27:42.069Z,35.40
2018-04-22T04:30:11.161Z,44.03
2018-04-22T04:32:40.460Z,41.43
2018-04-22T04:35:09.552Z,43.90
2018-04-22T04:37:38.766Z,30.33
2018-04-22T04:40:07.836Z,36.20
2018-04-22T04:42:37.072Z,34.40
2018-04-22T04:45:07.036Z,41.57
2018-04-22T04:47:36.249Z,31.67
2018-04-22T04:50:05.344Z,41.27
2018-04-22T04:52:34.659Z,43.60
2018-04-22T04:55:03.873Z,42.23
2018-04-22T04:57:33.979Z,39.63
2018-04-22T05:00:03.283Z,56.13
2018-04-22T05:02:32.511Z,52.23
2018-04-22T05:05:02.300Z,41.10
2018-04-22T05:07:31.585Z,52.43
2018-04-22T05:10:00.697Z,69.30
2018-04-22T05:12:29.939Z,53.10
2018-04-22T05:14:59.039Z,53.47
2018-04-22T05:17:28.181Z,81.90
2018-04-22T05:19:57.212Z,63.83
2018-04-22T05:22:27.319Z,85.70
2018-04-22T05:24:56.406Z,86.23
2018-04-22T05:27:25.707Z,90.00
2018-04-22T05:29:54.683Z,77.33
2018-04-22T05:32:23.795Z,100.53
2018-04-22T05:34:53.776Z,90.77
2018-04-22T05:37:23.115Z,91.03
2018-04-22T05:39:52.196Z,88.23
2018-04-22T05:42:21.212Z,93.93
2018-04-22T05:44:50.292Z,100.47
2018-04-22T05:47:19.603Z,80.47
2018-04-22T05:49:48.630Z,104.13
2018-04-22T05:52:18.838Z,87.67
2018-04-22T05:54:48.023Z,72.50
2018-04-22T05:57:18.407Z,78.80
2018-04-22T05:59:47.534Z,54.00
2018-04-22T06:02:16.933Z,80.20
2018-04-22T06:04:46.075Z,86.60
2018-04-22T06:07:16.053Z,59.83
2018-04-22T06:09:45.115Z,58.10
2018-04-22T06:12:14.411Z,82.40
2018-04-22T06:14:43.459Z,69.00
2018-04-22T06:17:12.484Z,92.80
2018-04-22T06:19:42.436Z,56.60
2018-04-22T06:22:11.722Z,63.47
2018-04-22T06:24:41.704Z,76.07
2018-04-22T06:27:11.667Z,60.57
2018-04-22T06:29:40.700Z,47.67
2018-04-22T06:32:09.871Z,75.43
2018-04-22T06:34:39.808Z,63.37
2018-04-22T06:37:09.120Z,59.50
2018-04-22T06:39:38.096Z,55.30
2018-04-22T06:42:07.312Z,60.30
2018-04-22T06:44:36.305Z,56.37
2018-04-22T06:47:05.407Z,67.10
2018-04-22T06:49:34.400Z,49.50
2018-04-22T06:52:03.525Z,61.23
2018-04-22T06:54:33.300Z,62.60
2018-04-22T06:57:02.600Z,50.87
2018-04-22T06:59:31.655Z,64.30
2018-04-22T07:02:01.601Z,59.20
2018-04-22T07:04:30.816Z,42.97
2018-04-22T07:07:00.112Z,46.70
2018-04-22T07:09:29.225Z,47.00
2018-04-22T07:11:58.396Z,35.10
2018-04-22T07:14:27.422Z,38.53
2018-04-22T07:16:56.547Z,52.30
2018-04-22T07:19:26.416Z,51.57
2018-04-22T07:21:55.679Z,52.57
2018-04-22T07:24:24.655Z,44.70
2018-04-22T07:26:54.867Z,29.97
2018-04-22T07:29:23.927Z,36.43
2018-04-22T07:31:53.132Z,43.40
2018-04-22T07:34:22.239Z,33.17
2018-04-22T07:36:52.115Z,41.17
2018-04-22T07:39:21.261Z,36.27
2018-04-22T07:41:50.547Z,40.27
2018-04-22T07:44:19.658Z,30.23
2018-04-22T07:46:48.810Z,33.37
2018-04-22T07:49:17.891Z,28.57
2018-04-22T07:51:47.971Z,34.03
2018-04-22T07:54:17.057Z,20.57
2018-04-22T07:56:46.321Z,22.83
2018-04-22T07:59:15.393Z,32.93
2018-04-22T08:01:45.384Z,28.33
2018-04-22T08:04:14.490Z,31.33
2018-04-22T08:06:43.904Z,37.07
2018-04-22T08:09:12.904Z,39.67
2018-04-22T08:11:43.115Z,29.70
2018-04-22T08:14:12.199Z,30.70
2018-04-22T08:16:41.381Z,27.27
2018-04-22T08:19:10.435Z,37.37
2018-04-22T08:21:40.427Z,26.80
2018-04-22T08:24:09.408Z,22.77
2018-04-22T08:26:38.692Z,35.17
2018-04-22T08:29:07.586Z,24.57
2018-04-22T08:31:36.884Z,26.47
2018-04-22T08:34:05.995Z,20.50
2018-04-22T08:36:35.243Z,23.10
2018-04-22T08:39:04.584Z,33.83
2018-04-22T08:41:34.065Z,24.60
2018-04-22T08:44:03.155Z,28.37
2018-04-22T08:46:32.395Z,30.20
2018-04-22T08:49:01.603Z,35.67
2018-04-22T08:51:32.285Z,33.20
2018-04-22T08:54:01.378Z,34.40
2018-04-22T08:56:30.551Z,26.50
2018-04-22T08:58:59.443Z,24.00
2018-04-22T09:01:28.612Z,30.80
2018-04-22T09:03:57.628Z,26.70
2018-04-22T09:06:26.734Z,37.60
2018-04-22T09:08:56.042Z,35.50
2018-04-22T09:11:26.062Z,33.30
2018-04-22T09:13:55.947Z,32.80
2018-04-22T09:16:25.303Z,35.63
2018-04-22T09:18:54.447Z,33.27
2018-04-22T09:21:23.638Z,29.27
2018-04-22T09:23:52.705Z,27.70
2018-04-22T09:26:21.767Z,39.87
2018-04-22T09:28:51.771Z,31.87
2018-04-22T09:31:20.945Z,36.20
2018-04-22T09:33:50.055Z,35.97
2018-04-22T09:36:20.280Z,42.23
2018-04-22T09:38:49.375Z,36.00
2018-04-22T09:41:18.556Z,25.87
2018-04-22T09:43:47.656Z,26.67
2018-04-22T09:46:16.859Z,42.63
2018-04-22T09:48:45.892Z,35.83
2018-04-22T09:51:15.989Z,32.97
2018-04-22T09:53:45.083Z,32.40
2018-04-22T09:56:14.265Z,39.40
2018-04-22T09:58:43.268Z,38.73
2018-04-22T10:01:17.775Z,39.77
2018-04-22T10:03:47.101Z,37.23
2018-04-22T10:06:16.388Z,47.93
2018-04-22T10:08:45.503Z,70.27
2018-04-22T10:11:14.847Z,70.43
2018-04-22T10:13:43.811Z,79.40
2018-04-22T10:16:13.005Z,63.57
2018-04-22T10:18:42.011Z,62.90
2018-04-22T10:21:11.075Z,68.47
2018-04-22T10:23:40.991Z,72.13
2018-04-22T10:26:10.184Z,54.93
2018-04-22T10:28:39.299Z,57.70
2018-04-22T10:31:08.488Z,56.63
2018-04-22T10:33:37.423Z,58.77
2018-04-22T10:36:07.562Z,58.43
2018-04-22T10:38:36.711Z,57.53
2018-04-22T10:41:05.907Z,61.23
2018-04-22T10:43:34.932Z,67.70
2018-04-22T10:46:04.824Z,57.57
2018-04-22T10:48:33.925Z,60.57
2018-04-22T10:51:03.199Z,51.80
2018-04-22T10:53:32.296Z,53.87
2018-04-22T10:56:01.561Z,57.03
2018-04-22T10:58:30.492Z,63.50
2018-04-22T11:00:59.398Z,53.43
2018-04-22T11:03:28.483Z,52.20
2018-04-22T11:05:57.797Z,46.80
2018-04-22T11:08:26.776Z,43.27
2018-04-22T11:10:55.936Z,51.10
2018-04-22T11:13:25.116Z,49.83
2018-04-22T11:15:55.227Z,56.73
2018-04-22T11:18:25.243Z,48.43
2018-04-22T11:20:54.641Z,45.10
2018-04-22T11:23:23.728Z,41.03
2018-04-22T11:25:53.016Z,51.17
2018-04-22T11:28:22.112Z,51.17
2018-04-22T11:30:51.376Z,46.93
2018-04-22T11:33:21.244Z,49.03
2018-04-22T11:35:50.435Z,54.37
2018-04-22T11:38:19.529Z,55.03
2018-04-22T11:40:48.843Z,48.57
2018-04-22T11:43:17.920Z,49.03
2018-04-22T11:45:47.164Z,55.03
2018-04-22T11:48:17.067Z,65.07
2018-04-22T11:50:46.266Z,48.00
2018-04-22T11:53:15.336Z,57.40
2018-04-22T11:55:44.651Z,70.40
2018-04-22T11:58:13.752Z,75.33
2018-04-22T12:00:42.827Z,66.20
2018-04-22T12:03:11.867Z,68.83
2018-04-22T12:05:41.823Z,61.17
2018-04-22T12:08:10.957Z,54.00
2018-04-22T12:10:40.246Z,73.83
2018-04-22T12:13:09.354Z,71.80
2018-04-22T12:15:38.605Z,67.80
2018-04-22T12:18:07.492Z,64.90
2018-04-22T12:20:36.642Z,49.70
2018-04-22T12:23:05.649Z,60.53
2018-04-22T12:25:34.723Z,42.50
2018-04-22T12:28:03.733Z,38.00
2018-04-22T12:30:32.800Z,42.13
2018-04-22T12:33:01.839Z,24.67
2018-04-22T12:35:31.943Z,41.23
2018-04-22T12:38:00.864Z,35.63
2018-04-22T12:40:30.919Z,39.87
2018-04-22T12:43:00.223Z,60.97
2018-04-22T12:45:29.559Z,39.23
2018-04-22T12:47:58.644Z,42.57
2018-04-22T12:50:27.939Z,34.40
2018-04-22T12:52:56.939Z,36.27
2018-04-22T12:55:26.073Z,30.40
2018-04-22T12:57:54.986Z,31.33
2018-04-22T13:00:24.058Z,30.57
2018-04-22T13:02:53.952Z,35.90
2018-04-22T13:05:23.135Z,38.30
2018-04-22T13:07:52.249Z,35.47
2018-04-22T13:10:21.576Z,34.40
2018-04-22T13:12:51.463Z,27.40
2018-04-22T13:15:20.791Z,30.00
2018-04-22T13:17:50.054Z,41.93
2018-04-22T13:20:19.415Z,29.03
2018-04-22T13:22:48.480Z,35.10
2018-04-22T13:25:17.428Z,45.40
2018-04-22T13:27:46.349Z,36.07
2018-04-22T13:30:15.278Z,37.70
2018-04-22T13:32:45.764Z,41.13
2018-04-22T13:35:14.970Z,36.60
2018-04-22T13:37:44.123Z,36.30
2018-04-22T13:40:13.283Z,44.37
2018-04-22T13:42:42.272Z,32.33
2018-04-22T13:45:11.372Z,39.17
2018-04-22T13:47:40.977Z,32.47
2018-04-22T13:50:10.156Z,28.53
2018-04-22T13:52:39.278Z,33.73
2018-04-22T13:55:08.563Z,44.97
2018-04-22T13:57:37.557Z,39.30
2018-04-22T14:00:06.748Z,37.43
2018-04-22T14:02:35.788Z,37.97
2018-04-22T14:05:05.790Z,45.10
2018-04-22T14:07:35.101Z,44.13
2018-04-22T14:10:05.058Z,41.63
2018-04-22T14:12:34.017Z,42.17
2018-04-22T14:15:04.173Z,52.27
2018-04-22T14:17:33.251Z,46.33
2018-04-22T14:20:03.475Z,38.70
2018-04-22T14:22:33.519Z,41.70
2018-04-22T14:25:02.888Z,31.00
2018-04-22T14:27:31.937Z,40.80
2018-04-22T14:30:01.251Z,33.77
2018-04-22T14:32:31.176Z,30.50
2018-04-22T14:35:00.720Z,43.63
2018-04-22T14:37:29.805Z,41.63
2018-04-22T14:39:59.997Z,32.30
2018-04-22T14:42:28.994Z,34.33
2018-04-22T14:45:10.709Z,29.60
2018-04-22T14:47:40.509Z,32.30
2018-04-22T14:50:09.913Z,42.60
2018-04-22T14:52:39.101Z,36.67
2018-04-22T14:55:08.385Z,28.83
2018-04-22T14:57:37.524Z,38.93
2018-04-22T15:00:07.476Z,51.50
2018-04-22T15:02:36.726Z,47.73
2018-04-22T15:05:06.006Z,43.83
2018-04-22T15:07:35.100Z,39.03
2018-04-22T15:10:04.256Z,37.53
2018-04-22T15:12:34.188Z,45.83
2018-04-22T15:15:03.313Z,29.97
2018-04-22T15:17:32.433Z,50.73
2018-04-22T15:20:01.901Z,44.90
2018-04-22T15:22:30.939Z,42.80
2018-04-22T15:25:00.049Z,47.17
2018-04-22T15:27:29.951Z,43.13
2018-04-22T15:29:59.121Z,41.60
2018-04-22T15:32:28.074Z,43.37
2018-04-22T15:34:58.267Z,43.93
2018-04-22T15:37:27.467Z,43.90
2018-04-22T15:39:56.750Z,40.80
2018-04-22T15:42:25.850Z,51.17
2018-04-22T15:44:55.098Z,45.33
2018-04-22T15:47:24.090Z,43.83
2018-04-22T15:49:53.097Z,45.13
2018-04-22T15:52:22.164Z,48.37
2018-04-22T15:54:52.067Z,35.87
2018-04-22T15:57:21.256Z,41.83
2018-04-22T15:59:50.550Z,35.90
2018-04-22T16:02:19.595Z,44.73
2018-04-22T16:04:49.732Z,46.43
2018-04-22T16:07:18.983Z,44.90
2018-04-22T16:09:48.155Z,45.70
2018-04-22T16:12:17.167Z,51.77
2018-04-22T16:14:46.405Z,48.17
2018-04-22T16:17:15.345Z,38.37
2018-04-22T16:19:44.399Z,55.93
2018-04-22T16:22:14.388Z,47.60
2018-04-22T16:24:43.675Z,43.33
2018-04-22T16:27:12.775Z,52.03
2018-04-22T16:29:41.647Z,47.97
2018-04-22T16:32:10.759Z,42.27
2018-04-22T16:34:39.984Z,34.23
2018-04-22T16:37:09.881Z,42.83
2018-04-22T16:39:39.187Z,35.27
2018-04-22T16:42:08.261Z,33.07
2018-04-22T16:44:37.518Z,26.23
2018-04-22T16:47:06.510Z,34.67
2018-04-22T16:49:36.607Z,22.90
2018-04-22T16:52:06.414Z,32.83
2018-04-22T16:54:35.915Z,36.27
2018-04-22T16:57:05.123Z,24.33
2018-04-22T16:59:34.408Z,35.47
2018-04-22T17:04:40.383Z,37.20
2018-04-22T17:07:09.405Z,20.80
2018-04-22T17:09:39.515Z,32.80
2018-04-22T17:12:08.581Z,29.73
2018-04-22T17:14:37.795Z,29.17
2018-04-22T17:17:06.903Z,30.10
2018-04-22T17:19:36.039Z,23.97
2018-04-22T17:22:05.131Z,38.90
2018-04-22T17:24:35.337Z,27.87
2018-04-22T17:27:05.243Z,35.17
2018-04-22T17:29:34.491Z,23.80
2018-04-22T17:32:03.747Z,30.00
2018-04-22T17:34:32.980Z,37.10
2018-04-22T17:37:02.008Z,27.20
2018-04-22T17:39:31.204Z,28.23
2018-04-22T17:42:00.372Z,19.90
2018-04-22T17:44:29.522Z,29.53
2018-04-22T17:46:58.516Z,23.50
2018-04-22T17:49:27.655Z,31.67
2018-04-22T17:51:57.487Z,37.77
2018-04-22T17:54:26.759Z,35.07
2018-04-22T17:56:56.777Z,26.90
2018-04-22T17:59:27.796Z,24.13
2018-04-22T18:01:56.884Z,29.87
2018-04-22T18:04:26.183Z,21.47
2018-04-22T18:06:55.166Z,26.40
2018-04-22T18:09:24.366Z,24.03
2018-04-22T18:11:53.315Z,27.50
2018-04-22T18:14:22.308Z,21.00
2018-04-22T18:16:51.492Z,21.27
2018-04-22T18:19:20.532Z,27.97
2018-04-22T18:21:49.574Z,26.80
2018-04-22T18:24:19.675Z,25.63
2018-04-22T18:26:48.875Z,22.83
2018-04-22T18:29:18.064Z,24.60
2018-04-22T18:31:47.068Z,26.10
2018-04-22T18:34:16.176Z,31.57
2018-04-22T18:36:44.979Z,24.13
2018-04-22T18:39:13.936Z,32.40
2018-04-22T18:41:42.976Z,21.37
2018-04-22T18:44:13.028Z,24.10
2018-04-22T18:46:42.270Z,26.80
2018-04-22T18:49:11.579Z,22.80
2018-04-22T18:51:41.615Z,28.17
2018-04-22T18:54:11.547Z,30.07
2018-04-22T18:56:40.528Z,28.57
2018-04-22T18:59:10.635Z,26.87
2018-04-22T19:01:40.778Z,25.30
2018-04-22T19:04:10.045Z,35.67
2018-04-22T19:06:39.337Z,28.17
2018-04-22T19:09:08.716Z,25.97
2018-04-22T19:11:37.739Z,22.13
2018-04-22T19:14:06.939Z,18.40
2018-04-22T19:16:35.874Z,26.50
2018-04-22T19:19:05.754Z,29.00
2018-04-22T19:21:34.971Z,37.07
2018-04-22T19:24:05.245Z,37.70
2018-04-22T19:26:34.472Z,31.70
2018-04-22T19:29:03.822Z,39.07
2018-04-22T19:31:33.019Z,31.17
2018-04-22T19:34:03.223Z,28.13
2018-04-22T19:36:33.228Z,31.00
2018-04-22T19:39:02.649Z,32.57
2018-04-22T19:41:31.730Z,42.63
2018-04-22T19:44:00.801Z,37.67
2018-04-22T19:46:29.919Z,37.10
2018-04-22T19:48:59.165Z,39.77
2018-04-22T19:51:28.267Z,34.50
2018-04-22T19:53:57.480Z,28.40
2018-04-22T19:56:26.499Z,28.50
2018-04-22T19:58:55.622Z,33.23
2018-04-22T20:01:25.331Z,33.97
2018-04-22T20:03:55.092Z,29.77
2018-04-22T20:06:24.150Z,31.43
2018-04-22T20:08:54.259Z,28.00
2018-04-22T20:11:23.340Z,32.10
2018-04-22T20:13:52.628Z,31.93
2018-04-22T20:16:21.735Z,20.87
2018-04-22T20:18:50.927Z,43.07
2018-04-22T20:21:19.947Z,32.20
2018-04-22T20:23:49.123Z,49.33
2018-04-22T20:26:18.135Z,22.73
2018-04-22T20:28:47.115Z,32.33
2018-04-22T20:31:16.162Z,30.60
2018-04-22T20:33:45.255Z,36.50
2018-04-22T20:36:14.631Z,30.93
2018-04-22T20:38:44.021Z,21.63
2018-04-22T20:41:13.105Z,31.73
2018-04-22T20:43:42.311Z,33.63
2018-04-22T20:46:11.459Z,33.17
2018-04-22T20:48:40.636Z,21.87
2018-04-22T20:51:10.543Z,22.87
2018-04-22T20:53:39.812Z,27.67
2018-04-22T20:56:08.907Z,33.13
2018-04-22T20:58:38.163Z,21.10
2018-04-22T21:01:08.143Z,21.50
2018-04-22T21:03:37.429Z,22.50
2018-04-22T21:06:06.540Z,25.37
2018-04-22T21:08:36.768Z,27.37
2018-04-22T21:11:05.876Z,24.17
2018-04-22T21:13:36.155Z,25.43
2018-04-22T21:16:05.403Z,24.13
2018-04-22T21:18:34.675Z,38.60
2018-04-22T21:21:03.733Z,28.00
2018-04-22T21:23:32.975Z,29.70
2018-04-22T21:26:02.015Z,32.73
2018-04-22T21:28:32.225Z,32.43
2018-04-22T21:31:02.344Z,29.27
2018-04-22T21:33:31.920Z,24.47
2018-04-22T21:36:01.118Z,27.90
2018-04-22T21:38:30.374Z,21.13
2018-04-22T21:40:59.312Z,27.87
2018-04-22T21:43:28.492Z,28.63
2018-04-22T21:45:57.515Z,28.03
2018-04-22T21:48:26.628Z,34.73
2018-04-22T21:50:55.643Z,34.57
2018-04-22T21:53:25.634Z,27.63
2018-04-22T21:55:54.727Z,21.77
2018-04-22T21:58:23.608Z,28.67
2018-04-22T22:00:52.715Z,26.30
2018-04-22T22:03:21.963Z,30.80
2018-04-22T22:05:50.960Z,26.33
2018-04-22T22:08:20.080Z,35.57
2018-04-22T22:10:49.134Z,26.33
2018-04-22T22:13:18.299Z,23.73
2018-04-22T22:15:47.287Z,21.43
2018-04-22T22:18:17.128Z,25.47
2018-04-22T22:20:46.327Z,27.73
2018-04-22T22:23:15.495Z,28.33
2018-04-22T22:25:44.593Z,27.93
2018-04-22T22:28:13.732Z,27.97
2018-04-22T22:30:43.682Z,23.90
2018-04-22T22:33:13.023Z,17.30
2018-04-22T22:35:42.252Z,30.33
2018-04-22T22:38:12.240Z,23.23
2018-04-22T22:40:41.455Z,26.50
2018-04-22T22:43:10.733Z,23.73
2018-04-22T22:45:39.619Z,29.80
2018-04-22T22:48:08.716Z,19.67
2018-04-22T22:50:37.826Z,27.50
2018-04-22T22:53:06.980Z,20.10
2018-04-22T22:55:36.071Z,21.50
2018-04-22T22:58:05.211Z,23.10
2018-04-22T23:00:34.208Z,25.47
2018-04-22T23:03:03.324Z,23.60
2018-04-22T23:05:32.628Z,22.93
2018-04-22T23:08:02.479Z,24.80
2018-04-22T23:10:31.452Z,16.33
2018-04-22T23:13:01.416Z,17.60
2018-04-22T23:15:30.545Z,25.47
2018-04-22T23:17:59.838Z,20.67
2018-04-22T23:20:28.935Z,27.90
2018-04-22T23:22:58.087Z,28.60
2018-04-22T23:25:27.064Z,26.77
2018-04-22T23:27:57.256Z,28.13
2018-04-22T23:30:26.339Z,21.30
2018-04-22T23:32:55.548Z,23.67
2018-04-22T23:35:24.643Z,21.70
2018-04-22T23:37:53.973Z,28.83
2018-04-22T23:40:22.958Z,33.87
2018-04-22T23:42:52.768Z,29.80
2018-04-22T23:45:21.943Z,33.00
2018-04-22T23:47:51.010Z,46.83
2018-04-22T23:50:20.136Z,21.63
2018-04-22T23:52:49.273Z,26.43
2018-04-22T23:55:19.127Z,20.57
2018-04-22T23:57:48.452Z,29.07
